sensor_id;sensor_type;location;lat;lon;timestamp;P1;durP1;ratioP1;P2;durP2;ratioP2
17510;SDS011;8873;48.818;9.422;2023-05-06T00:00:42;13.27;;;9.32;;
17510;SDS011;8873;48.818;9.422;2023-05-06T00:03:09;18.20;;;9.68;;
17510;SDS011;8873;48.818;9.422;2023-05-06T00:05:37;15.77;;;10.60;;
17510;SDS011;8873;48.818;9.422;2023-05-06T00:08:05;18.73;;;11.07;;
17510;SDS011;8873;48.818;9.422;2023-05-06T00:10:33;18.40;;;10.95;;
17510;SDS011;8873;48.818;9.422;2023-05-06T00:13:00;21.10;;;10.15;;
17510;SDS011;8873;48.818;9.422;2023-05-06T00:15:28;17.58;;;10.40;;
17510;SDS011;8873;48.818;9.422;2023-05-06T00:17:59;19.10;;;9.82;;
17510;SDS011;8873;48.818;9.422;2023-05-06T00:20:26;17.73;;;11.77;;
17510;SDS011;8873;48.818;9.422;2023-05-06T00:22:54;19.83;;;11.27;;
17510;SDS011;8873;48.818;9.422;2023-05-06T00:25:22;19.20;;;11.20;;
17510;SDS011;8873;48.818;9.422;2023-05-06T00:27:49;19.75;;;12.38;;
17510;SDS011;8873;48.818;9.422;2023-05-06T00:30:17;25.60;;;12.52;;
17510;SDS011;8873;48.818;9.422;2023-05-06T00:32:44;20.20;;;11.93;;
17510;SDS011;8873;48.818;9.422;2023-05-06T00:35:13;25.30;;;11.75;;
17510;SDS011;8873;48.818;9.422;2023-05-06T00:37:43;20.08;;;11.85;;
17510;SDS011;8873;48.818;9.422;2023-05-06T00:40:11;22.00;;;12.27;;
17510;SDS011;8873;48.818;9.422;2023-05-06T00:42:39;25.00;;;12.95;;
17510;SDS011;8873;48.818;9.422;2023-05-06T00:45:07;18.75;;;11.63;;
17510;SDS011;8873;48.818;9.422;2023-05-06T00:47:35;19.50;;;11.95;;
17510;SDS011;8873;48.818;9.422;2023-05-06T00:50:03;20.60;;;12.73;;
17510;SDS011;8873;48.818;9.422;2023-05-06T00:52:32;22.63;;;12.48;;
17510;SDS011;8873;48.818;9.422;2023-05-06T00:54:59;22.05;;;12.00;;
17510;SDS011;8873;48.818;9.422;2023-05-06T00:57:27;26.00;;;13.55;;
17510;SDS011;8873;48.818;9.422;2023-05-06T00:59:54;22.23;;;13.45;;
17510;SDS011;8873;48.818;9.422;2023-05-06T01:02:22;25.70;;;12.88;;
17510;SDS011;8873;48.818;9.422;2023-05-06T01:05:01;26.55;;;12.77;;
17510;SDS011;8873;48.818;9.422;2023-05-06T01:07:39;25.88;;;12.30;;
17510;SDS011;8873;48.818;9.422;2023-05-06T01:10:12;22.20;;;12.38;;
17510;SDS011;8873;48.818;9.422;2023-05-06T01:12:46;26.23;;;14.02;;
17510;SDS011;8873;48.818;9.422;2023-05-06T01:15:19;25.75;;;12.98;;
17510;SDS011;8873;48.818;9.422;2023-05-06T01:17:48;26.40;;;12.88;;
17510;SDS011;8873;48.818;9.422;2023-05-06T01:20:17;22.63;;;13.63;;
17510;SDS011;8873;48.818;9.422;2023-05-06T01:22:46;21.45;;;12.40;;
17510;SDS011;8873;48.818;9.422;2023-05-06T01:25:19;24.98;;;11.70;;
17510;SDS011;8873;48.818;9.422;2023-05-06T01:27:47;20.70;;;11.50;;
17510;SDS011;8873;48.818;9.422;2023-05-06T01:30:15;19.27;;;12.13;;
17510;SDS011;8873;48.818;9.422;2023-05-06T01:32:47;20.13;;;10.98;;
17510;SDS011;8873;48.818;9.422;2023-05-06T01:35:19;20.83;;;11.50;;
17510;SDS011;8873;48.818;9.422;2023-05-06T01:37:51;18.52;;;10.43;;
17510;SDS011;8873;48.818;9.422;2023-05-06T01:40:20;15.18;;;9.30;;
17510;SDS011;8873;48.818;9.422;2023-05-06T01:42:51;13.38;;;8.48;;
17510;SDS011;8873;48.818;9.422;2023-05-06T01:45:19;17.67;;;8.88;;
17510;SDS011;8873;48.818;9.422;2023-05-06T01:47:48;15.00;;;7.90;;
17510;SDS011;8873;48.818;9.422;2023-05-06T01:50:16;14.45;;;8.05;;
17510;SDS011;8873;48.818;9.422;2023-05-06T01:52:44;13.05;;;7.90;;
17510;SDS011;8873;48.818;9.422;2023-05-06T01:55:11;14.00;;;8.77;;
17510;SDS011;8873;48.818;9.422;2023-05-06T01:57:40;14.20;;;8.80;;
17510;SDS011;8873;48.818;9.422;2023-05-06T02:00:08;16.92;;;8.50;;
17510;SDS011;8873;48.818;9.422;2023-05-06T02:02:36;17.63;;;9.57;;
17510;SDS011;8873;48.818;9.422;2023-05-06T02:05:04;14.75;;;9.02;;
17510;SDS011;8873;48.818;9.422;2023-05-06T02:07:32;21.42;;;9.68;;
17510;SDS011;8873;48.818;9.422;2023-05-06T02:09:59;16.20;;;8.73;;
17510;SDS011;8873;48.818;9.422;2023-05-06T02:12:27;18.15;;;7.78;;
17510;SDS011;8873;48.818;9.422;2023-05-06T02:14:56;13.48;;;7.80;;
17510;SDS011;8873;48.818;9.422;2023-05-06T02:17:23;12.10;;;7.60;;
17510;SDS011;8873;48.818;9.422;2023-05-06T02:19:51;13.65;;;7.70;;
17510;SDS011;8873;48.818;9.422;2023-05-06T02:22:18;17.17;;;7.90;;
17510;SDS011;8873;48.818;9.422;2023-05-06T02:24:46;13.82;;;7.50;;
17510;SDS011;8873;48.818;9.422;2023-05-06T02:27:14;11.95;;;7.45;;
17510;SDS011;8873;48.818;9.422;2023-05-06T02:29:41;10.10;;;7.00;;
17510;SDS011;8873;48.818;9.422;2023-05-06T02:32:10;13.13;;;7.35;;
17510;SDS011;8873;48.818;9.422;2023-05-06T02:34:38;10.18;;;7.22;;
17510;SDS011;8873;48.818;9.422;2023-05-06T02:37:05;10.02;;;7.15;;
17510;SDS011;8873;48.818;9.422;2023-05-06T02:39:33;11.40;;;6.90;;
17510;SDS011;8873;48.818;9.422;2023-05-06T02:42:00;10.73;;;6.95;;
17510;SDS011;8873;48.818;9.422;2023-05-06T02:44:28;12.45;;;6.85;;
17510;SDS011;8873;48.818;9.422;2023-05-06T02:46:56;13.25;;;7.28;;
17510;SDS011;8873;48.818;9.422;2023-05-06T02:49:25;11.13;;;7.65;;
17510;SDS011;8873;48.818;9.422;2023-05-06T02:51:53;17.35;;;7.75;;
17510;SDS011;8873;48.818;9.422;2023-05-06T02:54:20;18.20;;;9.75;;
17510;SDS011;8873;48.818;9.422;2023-05-06T02:56:48;20.05;;;11.15;;
17510;SDS011;8873;48.818;9.422;2023-05-06T02:59:15;24.58;;;12.20;;
17510;SDS011;8873;48.818;9.422;2023-05-06T03:01:43;22.63;;;11.48;;
17510;SDS011;8873;48.818;9.422;2023-05-06T03:04:11;43.33;;;13.18;;
17510;SDS011;8873;48.818;9.422;2023-05-06T03:06:40;38.78;;;13.55;;
17510;SDS011;8873;48.818;9.422;2023-05-06T03:09:08;41.88;;;14.05;;
17510;SDS011;8873;48.818;9.422;2023-05-06T03:11:35;40.22;;;12.85;;
17510;SDS011;8873;48.818;9.422;2023-05-06T03:14:03;31.83;;;13.43;;
17510;SDS011;8873;48.818;9.422;2023-05-06T03:16:30;32.15;;;13.45;;
17510;SDS011;8873;48.818;9.422;2023-05-06T03:18:58;27.92;;;12.80;;
17510;SDS011;8873;48.818;9.422;2023-05-06T03:21:26;33.45;;;14.55;;
17510;SDS011;8873;48.818;9.422;2023-05-06T03:23:55;28.00;;;12.23;;
17510;SDS011;8873;48.818;9.422;2023-05-06T03:26:22;25.35;;;12.57;;
17510;SDS011;8873;48.818;9.422;2023-05-06T03:28:50;25.65;;;12.18;;
17510;SDS011;8873;48.818;9.422;2023-05-06T03:31:17;27.77;;;14.63;;
17510;SDS011;8873;48.818;9.422;2023-05-06T03:33:45;23.48;;;12.35;;
17510;SDS011;8873;48.818;9.422;2023-05-06T03:36:12;26.88;;;12.38;;
17510;SDS011;8873;48.818;9.422;2023-05-06T03:38:40;24.40;;;12.18;;
17510;SDS011;8873;48.818;9.422;2023-05-06T03:41:11;23.50;;;11.82;;
17510;SDS011;8873;48.818;9.422;2023-05-06T03:43:39;21.85;;;12.48;;
17510;SDS011;8873;48.818;9.422;2023-05-06T03:46:07;25.83;;;13.45;;
17510;SDS011;8873;48.818;9.422;2023-05-06T03:48:34;31.70;;;13.07;;
17510;SDS011;8873;48.818;9.422;2023-05-06T03:51:02;32.50;;;13.88;;
17510;SDS011;8873;48.818;9.422;2023-05-06T03:53:29;32.92;;;14.02;;
17510;SDS011;8873;48.818;9.422;2023-05-06T03:55:57;30.70;;;14.52;;
17510;SDS011;8873;48.818;9.422;2023-05-06T03:58:28;31.92;;;13.80;;
17510;SDS011;8873;48.818;9.422;2023-05-06T04:00:55;32.53;;;13.85;;
17510;SDS011;8873;48.818;9.422;2023-05-06T04:03:26;24.10;;;12.60;;
17510;SDS011;8873;48.818;9.422;2023-05-06T04:05:53;25.15;;;12.63;;
17510;SDS011;8873;48.818;9.422;2023-05-06T04:08:21;25.98;;;12.27;;
17510;SDS011;8873;48.818;9.422;2023-05-06T04:10:48;24.02;;;12.07;;
17510;SDS011;8873;48.818;9.422;2023-05-06T04:13:16;20.50;;;11.15;;
17510;SDS011;8873;48.818;9.422;2023-05-06T04:15:47;26.63;;;12.18;;
17510;SDS011;8873;48.818;9.422;2023-05-06T04:18:14;19.77;;;10.63;;
17510;SDS011;8873;48.818;9.422;2023-05-06T04:20:45;23.25;;;11.02;;
17510;SDS011;8873;48.818;9.422;2023-05-06T04:23:12;20.67;;;10.80;;
17510;SDS011;8873;48.818;9.422;2023-05-06T04:25:40;19.35;;;10.27;;
17510;SDS011;8873;48.818;9.422;2023-05-06T04:28:14;19.35;;;10.95;;
17510;SDS011;8873;48.818;9.422;2023-05-06T04:30:42;24.00;;;10.73;;
17510;SDS011;8873;48.818;9.422;2023-05-06T04:33:11;20.58;;;11.38;;
17510;SDS011;8873;48.818;9.422;2023-05-06T04:35:39;125.53;;;15.00;;
17510;SDS011;8873;48.818;9.422;2023-05-06T04:38:07;235.50;;;22.55;;
17510;SDS011;8873;48.818;9.422;2023-05-06T04:40:35;453.17;;;27.40;;
17510;SDS011;8873;48.818;9.422;2023-05-06T04:43:04;418.95;;;23.67;;
17510;SDS011;8873;48.818;9.422;2023-05-06T04:45:32;347.20;;;19.65;;
17510;SDS011;8873;48.818;9.422;2023-05-06T04:48:03;398.90;;;20.02;;
17510;SDS011;8873;48.818;9.422;2023-05-06T04:50:32;344.08;;;19.00;;
17510;SDS011;8873;48.818;9.422;2023-05-06T04:52:59;163.82;;;12.55;;
17510;SDS011;8873;48.818;9.422;2023-05-06T04:55:27;76.38;;;10.80;;
17510;SDS011;8873;48.818;9.422;2023-05-06T04:57:54;32.55;;;10.05;;
17510;SDS011;8873;48.818;9.422;2023-05-06T05:00:22;76.40;;;11.77;;
17510;SDS011;8873;48.818;9.422;2023-05-06T05:02:51;47.33;;;11.48;;
17510;SDS011;8873;48.818;9.422;2023-05-06T05:05:19;53.15;;;12.38;;
17510;SDS011;8873;48.818;9.422;2023-05-06T05:07:48;83.50;;;13.15;;
17510;SDS011;8873;48.818;9.422;2023-05-06T05:10:15;70.22;;;13.32;;
17510;SDS011;8873;48.818;9.422;2023-05-06T05:12:43;38.92;;;12.23;;
17510;SDS011;8873;48.818;9.422;2023-05-06T05:15:11;54.95;;;12.02;;
17510;SDS011;8873;48.818;9.422;2023-05-06T05:17:39;69.40;;;12.43;;
17510;SDS011;8873;48.818;9.422;2023-05-06T05:20:07;64.25;;;14.00;;
17510;SDS011;8873;48.818;9.422;2023-05-06T05:22:34;41.47;;;11.95;;
17510;SDS011;8873;48.818;9.422;2023-05-06T05:25:04;165.18;;;16.20;;
17510;SDS011;8873;48.818;9.422;2023-05-06T05:27:33;128.45;;;14.45;;
17510;SDS011;8873;48.818;9.422;2023-05-06T05:30:01;125.43;;;14.05;;
17510;SDS011;8873;48.818;9.422;2023-05-06T05:32:29;43.08;;;11.70;;
17510;SDS011;8873;48.818;9.422;2023-05-06T05:34:57;90.55;;;13.05;;
17510;SDS011;8873;48.818;9.422;2023-05-06T05:37:24;64.05;;;13.50;;
17510;SDS011;8873;48.818;9.422;2023-05-06T05:39:52;38.38;;;12.18;;
17510;SDS011;8873;48.818;9.422;2023-05-06T05:42:21;49.78;;;13.40;;
17510;SDS011;8873;48.818;9.422;2023-05-06T05:44:48;67.20;;;14.35;;
17510;SDS011;8873;48.818;9.422;2023-05-06T05:47:16;53.10;;;13.35;;
17510;SDS011;8873;48.818;9.422;2023-05-06T05:49:43;107.55;;;15.13;;
17510;SDS011;8873;48.818;9.422;2023-05-06T05:52:11;95.85;;;14.50;;
17510;SDS011;8873;48.818;9.422;2023-05-06T05:54:41;38.50;;;13.15;;
17510;SDS011;8873;48.818;9.422;2023-05-06T05:57:09;78.20;;;15.02;;
17510;SDS011;8873;48.818;9.422;2023-05-06T05:59:38;70.47;;;14.85;;
17510;SDS011;8873;48.818;9.422;2023-05-06T06:02:05;87.32;;;14.43;;
17510;SDS011;8873;48.818;9.422;2023-05-06T06:04:33;63.40;;;14.02;;
17510;SDS011;8873;48.818;9.422;2023-05-06T06:07:01;86.55;;;15.73;;
17510;SDS011;8873;48.818;9.422;2023-05-06T06:09:29;49.00;;;16.13;;
17510;SDS011;8873;48.818;9.422;2023-05-06T06:11:56;84.70;;;16.40;;
17510;SDS011;8873;48.818;9.422;2023-05-06T06:14:24;35.90;;;15.50;;
17510;SDS011;8873;48.818;9.422;2023-05-06T06:16:53;78.53;;;17.38;;
17510;SDS011;8873;48.818;9.422;2023-05-06T06:19:20;54.97;;;19.05;;
17510;SDS011;8873;48.818;9.422;2023-05-06T06:21:48;40.15;;;18.02;;
17510;SDS011;8873;48.818;9.422;2023-05-06T06:24:15;41.83;;;18.60;;
17510;SDS011;8873;48.818;9.422;2023-05-06T06:26:43;35.30;;;18.42;;
17510;SDS011;8873;48.818;9.422;2023-05-06T06:29:10;37.72;;;17.90;;
17510;SDS011;8873;48.818;9.422;2023-05-06T06:31:38;34.40;;;17.40;;
17510;SDS011;8873;48.818;9.422;2023-05-06T06:34:07;29.27;;;16.13;;
17510;SDS011;8873;48.818;9.422;2023-05-06T06:36:39;23.52;;;14.40;;
17510;SDS011;8873;48.818;9.422;2023-05-06T06:39:10;26.88;;;15.20;;
17510;SDS011;8873;48.818;9.422;2023-05-06T06:41:38;24.27;;;14.55;;
17510;SDS011;8873;48.818;9.422;2023-05-06T06:44:05;30.75;;;15.50;;
17510;SDS011;8873;48.818;9.422;2023-05-06T06:46:33;25.60;;;15.30;;
17510;SDS011;8873;48.818;9.422;2023-05-06T06:49:01;20.60;;;12.88;;
17510;SDS011;8873;48.818;9.422;2023-05-06T06:51:29;21.02;;;13.27;;
17510;SDS011;8873;48.818;9.422;2023-05-06T06:53:57;18.50;;;12.25;;
17510;SDS011;8873;48.818;9.422;2023-05-06T06:56:28;16.77;;;10.45;;
17510;SDS011;8873;48.818;9.422;2023-05-06T06:58:57;14.65;;;10.45;;
17510;SDS011;8873;48.818;9.422;2023-05-06T07:01:24;12.50;;;8.60;;
17510;SDS011;8873;48.818;9.422;2023-05-06T07:03:52;12.75;;;9.75;;
17510;SDS011;8873;48.818;9.422;2023-05-06T07:06:19;13.73;;;8.18;;
17510;SDS011;8873;48.818;9.422;2023-05-06T07:08:48;16.70;;;8.43;;
17510;SDS011;8873;48.818;9.422;2023-05-06T07:11:16;11.25;;;7.78;;
17510;SDS011;8873;48.818;9.422;2023-05-06T07:13:43;10.38;;;6.97;;
17510;SDS011;8873;48.818;9.422;2023-05-06T07:16:11;9.85;;;6.60;;
17510;SDS011;8873;48.818;9.422;2023-05-06T07:18:38;10.95;;;7.25;;
17510;SDS011;8873;48.818;9.422;2023-05-06T07:21:06;10.32;;;7.57;;
17510;SDS011;8873;48.818;9.422;2023-05-06T07:23:34;9.52;;;8.15;;
17510;SDS011;8873;48.818;9.422;2023-05-06T07:26:03;7.53;;;6.82;;
17510;SDS011;8873;48.818;9.422;2023-05-06T07:28:30;7.38;;;6.28;;
17510;SDS011;8873;48.818;9.422;2023-05-06T07:30:58;9.45;;;6.38;;
17510;SDS011;8873;48.818;9.422;2023-05-06T07:36:32;7.25;;;6.55;;
17510;SDS011;8873;48.818;9.422;2023-05-06T07:39:05;6.40;;;5.80;;
17510;SDS011;8873;48.818;9.422;2023-05-06T07:41:34;9.82;;;6.88;;
17510;SDS011;8873;48.818;9.422;2023-05-06T07:44:02;7.50;;;6.13;;
17510;SDS011;8873;48.818;9.422;2023-05-06T07:46:31;7.80;;;5.45;;
17510;SDS011;8873;48.818;9.422;2023-05-06T07:48:59;6.03;;;5.47;;
17510;SDS011;8873;48.818;9.422;2023-05-06T07:51:27;7.97;;;5.53;;
17510;SDS011;8873;48.818;9.422;2023-05-06T07:53:55;8.48;;;5.82;;
17510;SDS011;8873;48.818;9.422;2023-05-06T07:56:25;6.13;;;5.18;;
17510;SDS011;8873;48.818;9.422;2023-05-06T07:58:55;9.45;;;6.13;;
17510;SDS011;8873;48.818;9.422;2023-05-06T08:01:24;10.23;;;5.63;;
17510;SDS011;8873;48.818;9.422;2023-05-06T08:03:52;5.93;;;5.38;;
17510;SDS011;8873;48.818;9.422;2023-05-06T08:06:29;5.07;;;4.68;;
17510;SDS011;8873;48.818;9.422;2023-05-06T08:09:38;6.68;;;4.90;;
17510;SDS011;8873;48.818;9.422;2023-05-06T08:12:06;5.22;;;4.65;;
17510;SDS011;8873;48.818;9.422;2023-05-06T08:36:03;3.50;;;3.30;;
17510;SDS011;8873;48.818;9.422;2023-05-06T08:38:55;5.63;;;3.50;;
17510;SDS011;8873;48.818;9.422;2023-05-06T08:42:15;3.80;;;3.50;;
17510;SDS011;8873;48.818;9.422;2023-05-06T08:49:43;4.03;;;3.72;;
17510;SDS011;8873;48.818;9.422;2023-05-06T09:01:44;3.53;;;3.15;;
17510;SDS011;8873;48.818;9.422;2023-05-06T09:04:12;3.50;;;3.20;;
17510;SDS011;8873;48.818;9.422;2023-05-06T09:06:46;4.53;;;3.50;;
17510;SDS011;8873;48.818;9.422;2023-05-06T09:09:20;5.68;;;2.92;;
17510;SDS011;8873;48.818;9.422;2023-05-06T09:11:48;3.40;;;3.20;;
17510;SDS011;8873;48.818;9.422;2023-05-06T09:14:19;2.85;;;2.65;;
17510;SDS011;8873;48.818;9.422;2023-05-06T09:16:49;4.72;;;2.72;;
17510;SDS011;8873;48.818;9.422;2023-05-06T09:19:18;3.03;;;2.83;;
17510;SDS011;8873;48.818;9.422;2023-05-06T09:21:46;4.30;;;2.88;;
17510;SDS011;8873;48.818;9.422;2023-05-06T09:24:15;5.22;;;2.80;;
17510;SDS011;8873;48.818;9.422;2023-05-06T09:26:43;3.25;;;3.05;;
17510;SDS011;8873;48.818;9.422;2023-05-06T09:29:11;2.88;;;2.60;;
17510;SDS011;8873;48.818;9.422;2023-05-06T09:31:39;3.33;;;2.38;;
17510;SDS011;8873;48.818;9.422;2023-05-06T09:34:08;3.83;;;2.58;;
17510;SDS011;8873;48.818;9.422;2023-05-06T09:36:36;4.32;;;2.70;;
17510;SDS011;8873;48.818;9.422;2023-05-06T09:39:04;2.42;;;2.30;;
17510;SDS011;8873;48.818;9.422;2023-05-06T09:41:33;3.10;;;2.30;;
17510;SDS011;8873;48.818;9.422;2023-05-06T09:44:00;2.53;;;2.33;;
17510;SDS011;8873;48.818;9.422;2023-05-06T09:46:28;2.85;;;2.58;;
17510;SDS011;8873;48.818;9.422;2023-05-06T09:48:56;2.60;;;2.40;;
17510;SDS011;8873;48.818;9.422;2023-05-06T09:51:25;2.28;;;2.15;;
17510;SDS011;8873;48.818;9.422;2023-05-06T09:53:54;3.70;;;2.60;;
17510;SDS011;8873;48.818;9.422;2023-05-06T09:56:22;2.38;;;2.20;;
17510;SDS011;8873;48.818;9.422;2023-05-06T09:58:50;4.40;;;2.47;;
17510;SDS011;8873;48.818;9.422;2023-05-06T10:01:18;4.47;;;2.70;;
17510;SDS011;8873;48.818;9.422;2023-05-06T10:04:01;2.88;;;2.67;;
17510;SDS011;8873;48.818;9.422;2023-05-06T10:06:31;2.70;;;2.45;;
17510;SDS011;8873;48.818;9.422;2023-05-06T10:09:00;2.83;;;2.63;;
17510;SDS011;8873;48.818;9.422;2023-05-06T10:11:29;2.20;;;2.10;;
17510;SDS011;8873;48.818;9.422;2023-05-06T10:13:57;2.83;;;2.20;;
17510;SDS011;8873;48.818;9.422;2023-05-06T10:16:26;2.13;;;1.98;;
17510;SDS011;8873;48.818;9.422;2023-05-06T10:18:54;3.20;;;2.67;;
17510;SDS011;8873;48.818;9.422;2023-05-06T10:21:23;2.60;;;2.40;;
17510;SDS011;8873;48.818;9.422;2023-05-06T10:23:56;2.13;;;2.03;;
17510;SDS011;8873;48.818;9.422;2023-05-06T10:26:25;2.10;;;2.00;;
17510;SDS011;8873;48.818;9.422;2023-05-06T10:28:53;1.70;;;1.60;;
17510;SDS011;8873;48.818;9.422;2023-05-06T10:31:21;2.60;;;1.70;;
17510;SDS011;8873;48.818;9.422;2023-05-06T10:33:52;1.60;;;1.50;;
17510;SDS011;8873;48.818;9.422;2023-05-06T10:36:21;1.70;;;1.60;;
17510;SDS011;8873;48.818;9.422;2023-05-06T10:38:49;1.70;;;1.60;;
17510;SDS011;8873;48.818;9.422;2023-05-06T10:41:21;1.80;;;1.70;;
17510;SDS011;8873;48.818;9.422;2023-05-06T10:43:51;2.75;;;1.98;;
17510;SDS011;8873;48.818;9.422;2023-05-06T10:46:22;2.58;;;1.85;;
17510;SDS011;8873;48.818;9.422;2023-05-06T10:51:40;2.65;;;2.00;;
17510;SDS011;8873;48.818;9.422;2023-05-06T10:54:22;1.63;;;1.52;;
17510;SDS011;8873;48.818;9.422;2023-05-06T10:57:07;1.50;;;1.40;;
17510;SDS011;8873;48.818;9.422;2023-05-06T10:59:35;1.98;;;1.60;;
17510;SDS011;8873;48.818;9.422;2023-05-06T11:02:08;1.60;;;1.50;;
17510;SDS011;8873;48.818;9.422;2023-05-06T11:04:36;1.55;;;1.30;;
17510;SDS011;8873;48.818;9.422;2023-05-06T11:07:05;2.10;;;1.50;;
17510;SDS011;8873;48.818;9.422;2023-05-06T11:09:33;2.58;;;1.48;;
17510;SDS011;8873;48.818;9.422;2023-05-06T11:12:21;1.60;;;1.50;;
17510;SDS011;8873;48.818;9.422;2023-05-06T11:14:49;1.80;;;1.25;;
17510;SDS011;8873;48.818;9.422;2023-05-06T11:17:29;1.88;;;1.42;;
17510;SDS011;8873;48.818;9.422;2023-05-06T11:22:43;5.15;;;1.40;;
17510;SDS011;8873;48.818;9.422;2023-05-06T11:25:10;2.42;;;1.50;;
17510;SDS011;8873;48.818;9.422;2023-05-06T11:27:40;1.23;;;1.23;;
17510;SDS011;8873;48.818;9.422;2023-05-06T11:30:11;1.38;;;1.30;;
17510;SDS011;8873;48.818;9.422;2023-05-06T11:32:39;1.50;;;1.40;;
17510;SDS011;8873;48.818;9.422;2023-05-06T11:35:10;1.50;;;1.50;;
17510;SDS011;8873;48.818;9.422;2023-05-06T11:37:38;1.77;;;1.50;;
17510;SDS011;8873;48.818;9.422;2023-05-06T11:40:12;1.95;;;1.52;;
17510;SDS011;8873;48.818;9.422;2023-05-06T11:42:41;1.55;;;1.40;;
17510;SDS011;8873;48.818;9.422;2023-05-06T11:45:10;2.25;;;1.50;;
17510;SDS011;8873;48.818;9.422;2023-05-06T11:47:41;1.40;;;1.40;;
17510;SDS011;8873;48.818;9.422;2023-05-06T11:50:09;1.45;;;1.35;;
17510;SDS011;8873;48.818;9.422;2023-05-06T11:52:37;2.00;;;1.50;;
17510;SDS011;8873;48.818;9.422;2023-05-06T11:55:06;2.45;;;1.60;;
17510;SDS011;8873;48.818;9.422;2023-05-06T11:57:35;2.85;;;1.40;;
17510;SDS011;8873;48.818;9.422;2023-05-06T12:00:04;1.95;;;1.58;;
17510;SDS011;8873;48.818;9.422;2023-05-06T12:02:34;3.42;;;1.45;;
17510;SDS011;8873;48.818;9.422;2023-05-06T12:05:01;1.95;;;1.52;;
17510;SDS011;8873;48.818;9.422;2023-05-06T12:07:29;2.17;;;1.33;;
17510;SDS011;8873;48.818;9.422;2023-05-06T12:09:57;1.40;;;1.40;;
17510;SDS011;8873;48.818;9.422;2023-05-06T12:12:29;1.45;;;1.40;;
17510;SDS011;8873;48.818;9.422;2023-05-06T12:14:57;1.60;;;1.60;;
17510;SDS011;8873;48.818;9.422;2023-05-06T12:17:27;2.17;;;1.35;;
17510;SDS011;8873;48.818;9.422;2023-05-06T12:19:54;1.77;;;1.58;;
17510;SDS011;8873;48.818;9.422;2023-05-06T12:22:23;2.70;;;1.50;;
17510;SDS011;8873;48.818;9.422;2023-05-06T12:24:50;1.75;;;1.70;;
17510;SDS011;8873;48.818;9.422;2023-05-06T12:27:29;2.80;;;2.60;;
17510;SDS011;8873;48.818;9.422;2023-05-06T12:29:56;1.63;;;1.52;;
17510;SDS011;8873;48.818;9.422;2023-05-06T12:32:24;2.40;;;1.70;;
17510;SDS011;8873;48.818;9.422;2023-05-06T12:34:53;2.17;;;1.90;;
17510;SDS011;8873;48.818;9.422;2023-05-06T12:37:25;1.80;;;1.70;;
17510;SDS011;8873;48.818;9.422;2023-05-06T12:39:53;2.30;;;1.73;;
17510;SDS011;8873;48.818;9.422;2023-05-06T12:42:24;3.10;;;1.50;;
17510;SDS011;8873;48.818;9.422;2023-05-06T12:44:52;1.90;;;1.80;;
17510;SDS011;8873;48.818;9.422;2023-05-06T12:47:20;2.03;;;1.80;;
17510;SDS011;8873;48.818;9.422;2023-05-06T12:49:49;1.77;;;1.60;;
17510;SDS011;8873;48.818;9.422;2023-05-06T12:52:18;1.48;;;1.48;;
17510;SDS011;8873;48.818;9.422;2023-05-06T12:54:46;1.50;;;1.40;;
17510;SDS011;8873;48.818;9.422;2023-05-06T12:57:15;2.30;;;2.08;;
17510;SDS011;8873;48.818;9.422;2023-05-06T12:59:42;1.67;;;1.58;;
17510;SDS011;8873;48.818;9.422;2023-05-06T13:02:10;1.70;;;1.60;;
17510;SDS011;8873;48.818;9.422;2023-05-06T13:04:38;1.92;;;1.60;;
17510;SDS011;8873;48.818;9.422;2023-05-06T13:07:06;3.05;;;1.95;;
17510;SDS011;8873;48.818;9.422;2023-05-06T13:09:35;2.45;;;2.35;;
17510;SDS011;8873;48.818;9.422;2023-05-06T13:12:03;1.73;;;1.70;;
17510;SDS011;8873;48.818;9.422;2023-05-06T13:14:31;1.88;;;1.77;;
17510;SDS011;8873;48.818;9.422;2023-05-06T13:16:58;1.65;;;1.60;;
17510;SDS011;8873;48.818;9.422;2023-05-06T13:19:30;1.45;;;1.40;;
17510;SDS011;8873;48.818;9.422;2023-05-06T13:21:58;2.95;;;1.45;;
17510;SDS011;8873;48.818;9.422;2023-05-06T13:24:26;2.17;;;1.48;;
17510;SDS011;8873;48.818;9.422;2023-05-06T13:26:55;1.35;;;1.25;;
17510;SDS011;8873;48.818;9.422;2023-05-06T13:29:25;2.78;;;1.40;;
17510;SDS011;8873;48.818;9.422;2023-05-06T13:31:53;1.55;;;1.42;;
17510;SDS011;8873;48.818;9.422;2023-05-06T13:34:21;2.05;;;1.25;;
17510;SDS011;8873;48.818;9.422;2023-05-06T13:36:49;3.22;;;1.52;;
17510;SDS011;8873;48.818;9.422;2023-05-06T13:39:17;1.98;;;1.25;;
17510;SDS011;8873;48.818;9.422;2023-05-06T13:41:45;1.90;;;1.27;;
17510;SDS011;8873;48.818;9.422;2023-05-06T13:44:14;1.17;;;1.15;;
17510;SDS011;8873;48.818;9.422;2023-05-06T13:46:42;1.30;;;1.30;;
17510;SDS011;8873;48.818;9.422;2023-05-06T13:49:13;1.20;;;1.20;;
17510;SDS011;8873;48.818;9.422;2023-05-06T13:51:41;3.10;;;1.20;;
17510;SDS011;8873;48.818;9.422;2023-05-06T13:54:08;1.25;;;1.20;;
17510;SDS011;8873;48.818;9.422;2023-05-06T13:56:36;1.42;;;1.33;;
17510;SDS011;8873;48.818;9.422;2023-05-06T13:59:03;1.17;;;1.17;;
17510;SDS011;8873;48.818;9.422;2023-05-06T14:01:35;7.88;;;1.30;;
17510;SDS011;8873;48.818;9.422;2023-05-06T14:04:03;2.17;;;1.38;;
17510;SDS011;8873;48.818;9.422;2023-05-06T14:06:30;23.20;;;2.33;;
17510;SDS011;8873;48.818;9.422;2023-05-06T14:08:58;3.42;;;1.73;;
17510;SDS011;8873;48.818;9.422;2023-05-06T14:11:26;8.77;;;2.80;;
17510;SDS011;8873;48.818;9.422;2023-05-06T14:13:54;3.00;;;1.60;;
17510;SDS011;8873;48.818;9.422;2023-05-06T14:16:21;2.10;;;1.30;;
17510;SDS011;8873;48.818;9.422;2023-05-06T14:18:50;1.67;;;1.20;;
17510;SDS011;8873;48.818;9.422;2023-05-06T14:21:19;1.70;;;1.30;;
17510;SDS011;8873;48.818;9.422;2023-05-06T14:23:46;1.23;;;1.15;;
17510;SDS011;8873;48.818;9.422;2023-05-06T14:26:14;2.03;;;1.30;;
17510;SDS011;8873;48.818;9.422;2023-05-06T14:28:42;1.17;;;1.10;;
17510;SDS011;8873;48.818;9.422;2023-05-06T14:31:09;2.30;;;1.30;;
17510;SDS011;8873;48.818;9.422;2023-05-06T14:33:37;1.85;;;1.40;;
17510;SDS011;8873;48.818;9.422;2023-05-06T14:36:06;2.60;;;1.35;;
17510;SDS011;8873;48.818;9.422;2023-05-06T14:38:34;1.20;;;1.10;;
17510;SDS011;8873;48.818;9.422;2023-05-06T14:41:01;2.65;;;1.40;;
17510;SDS011;8873;48.818;9.422;2023-05-06T14:43:29;1.25;;;1.25;;
17510;SDS011;8873;48.818;9.422;2023-05-06T14:45:56;1.42;;;1.30;;
17510;SDS011;8873;48.818;9.422;2023-05-06T14:48:24;1.10;;;1.10;;
17510;SDS011;8873;48.818;9.422;2023-05-06T14:50:51;3.55;;;1.08;;
17510;SDS011;8873;48.818;9.422;2023-05-06T14:53:20;1.20;;;1.15;;
17510;SDS011;8873;48.818;9.422;2023-05-06T14:55:48;2.60;;;1.20;;
17510;SDS011;8873;48.818;9.422;2023-05-06T14:58:16;3.20;;;1.27;;
17510;SDS011;8873;48.818;9.422;2023-05-06T15:00:44;1.10;;;1.10;;
17510;SDS011;8873;48.818;9.422;2023-05-06T15:03:13;1.80;;;1.10;;
17510;SDS011;8873;48.818;9.422;2023-05-06T15:05:41;3.53;;;1.30;;
17510;SDS011;8873;48.818;9.422;2023-05-06T15:08:08;1.20;;;1.20;;
17510;SDS011;8873;48.818;9.422;2023-05-06T15:10:37;1.30;;;1.20;;
17510;SDS011;8873;48.818;9.422;2023-05-06T15:13:06;1.83;;;1.10;;
17510;SDS011;8873;48.818;9.422;2023-05-06T15:15:34;1.20;;;1.20;;
17510;SDS011;8873;48.818;9.422;2023-05-06T15:18:01;1.83;;;1.30;;
17510;SDS011;8873;48.818;9.422;2023-05-06T15:20:29;7.35;;;3.50;;
17510;SDS011;8873;48.818;9.422;2023-05-06T15:22:57;17.63;;;3.67;;
17510;SDS011;8873;48.818;9.422;2023-05-06T15:25:24;41.40;;;9.93;;
17510;SDS011;8873;48.818;9.422;2023-05-06T15:28:02;1.40;;;1.38;;
17510;SDS011;8873;48.818;9.422;2023-05-06T15:30:30;4.53;;;1.88;;
17510;SDS011;8873;48.818;9.422;2023-05-06T15:32:58;241.15;;;63.85;;
17510;SDS011;8873;48.818;9.422;2023-05-06T15:35:26;2.30;;;1.75;;
17510;SDS011;8873;48.818;9.422;2023-05-06T15:37:54;1.50;;;1.40;;
17510;SDS011;8873;48.818;9.422;2023-05-06T15:40:24;1.35;;;1.27;;
17510;SDS011;8873;48.818;9.422;2023-05-06T15:42:51;2.35;;;1.08;;